Mexican Bay — 9HA3565 — position and weather

sailwx.info

Track history (hours):
 
Tides and Currents Weather Stations Pressure Air Temp Water Temp Dewpoint Dewpoint Depression Visibility Wind Speed Wind Dir Waves Ship Positions

Mexican Bay

Last reported at 2018-Aug-18 23:34 UTC. Time now 2018-Aug-19 15:17 UTC.
Position S 29°51' E 031°06'.

Length 145 m; draft 6.2 m.

Type: Cargo ship. MMSI: 229738000.

Date/timePositionNaut miles runAvg speedWind from/ knotsBaromVisibWave heightAir tempDewpointWater temp
2018-Aug-18 23:34S 29°51' E 031°06'  
2018-Aug-12 13:32S 29°52' E 031°02'0 0.0
2018-Aug-12 09:45S 29°52' E 031°02'0 1.5
2018-Aug-12 09:30S 29°52' E 031°02'4 8.3
2018-Aug-12 09:00S 29°50' E 031°05'1 2.4
2018-Aug-12 08:30S 29°49' E 031°06'1 1.1
2018-Aug-12 07:32S 29°49' E 031°07'0 4.6
2018-Aug-12 07:30S 29°50' E 031°07'510.1
2018-Aug-12 06:59S 29°55' E 031°05'1 1.6
2018-Aug-12 06:30S 29°55' E 031°06'1 1.3
2018-Aug-12 06:00S 29°55' E 031°06'1 1.2
2018-Aug-12 05:30S 29°55' E 031°07'1 1.3
2018-Aug-12 05:00S 29°55' E 031°08'1 1.5
2018-Aug-12 04:30S 29°54' E 031°08'1 1.4
2018-Aug-12 04:00S 29°54' E 031°09'1 2.2
2018-Aug-12 03:30S 29°53' E 031°10'1 1.8
2018-Aug-12 03:00S 29°54' E 031°10'2 3.2
2018-Aug-12 02:30S 29°55' E 031°10'2 3.6
2018-Aug-12 02:00S 29°57' E 031°10'2 3.3
2018-Aug-12 01:30S 29°59' E 031°10'69213.7
2018-Aug-09 23:06S 34°39' E 018°42'415.7
2018-Aug-09 22:50S 34°37' E 018°37'1115.6
2018-Aug-09 22:08S 34°33' E 018°25'215.6
2018-Aug-09 21:58S 34°32' E 018°22'914.7
2018-Aug-09 21:20S 34°27' E 018°12'514.7
2018-Aug-09 20:59S 34°23' E 018°08'714.6
2018-Aug-09 20:29S 34°17' E 018°03'714.6
2018-Aug-09 20:00S 34°12' E 017°58'714.7
2018-Aug-09 19:30S 34°06' E 017°53'  
Track history (hours):
 
Tides and Currents Weather Stations Pressure Air Temp Water Temp Dewpoint Dewpoint Depression Visibility Wind Speed Wind Dir Waves Ship Positions

Mexican Bay

Last reported at 2018-Aug-18 23:34 UTC. Time now 2018-Aug-19 15:17 UTC.
Position S 29°51' E 031°06'.

Length 145 m; draft 6.2 m.

Type: Cargo ship. MMSI: 229738000.

Date/timePositionNaut miles runAvg speedWind from/ knotsBaromVisibWave heightAir tempDewpointWater temp
2018-Aug-18 23:34S 29°51' E 031°06'  
2018-Aug-12 13:32S 29°52' E 031°02'0 0.0
2018-Aug-12 09:45S 29°52' E 031°02'0 1.5
2018-Aug-12 09:30S 29°52' E 031°02'4 8.3
2018-Aug-12 09:00S 29°50' E 031°05'1 2.4
2018-Aug-12 08:30S 29°49' E 031°06'1 1.1
2018-Aug-12 07:32S 29°49' E 031°07'0 4.6
2018-Aug-12 07:30S 29°50' E 031°07'510.1
2018-Aug-12 06:59S 29°55' E 031°05'1 1.6
2018-Aug-12 06:30S 29°55' E 031°06'1 1.3
2018-Aug-12 06:00S 29°55' E 031°06'1 1.2
2018-Aug-12 05:30S 29°55' E 031°07'1 1.3
2018-Aug-12 05:00S 29°55' E 031°08'1 1.5
2018-Aug-12 04:30S 29°54' E 031°08'1 1.4
2018-Aug-12 04:00S 29°54' E 031°09'1 2.2
2018-Aug-12 03:30S 29°53' E 031°10'1 1.8
2018-Aug-12 03:00S 29°54' E 031°10'2 3.2
2018-Aug-12 02:30S 29°55' E 031°10'2 3.6
2018-Aug-12 02:00S 29°57' E 031°10'2 3.3
2018-Aug-12 01:30S 29°59' E 031°10'69213.7
2018-Aug-09 23:06S 34°39' E 018°42'415.7
2018-Aug-09 22:50S 34°37' E 018°37'1115.6
2018-Aug-09 22:08S 34°33' E 018°25'215.6
2018-Aug-09 21:58S 34°32' E 018°22'914.7
2018-Aug-09 21:20S 34°27' E 018°12'514.7
2018-Aug-09 20:59S 34°23' E 018°08'714.6
2018-Aug-09 20:29S 34°17' E 018°03'714.6
2018-Aug-09 20:00S 34°12' E 017°58'714.7
2018-Aug-09 19:30S 34°06' E 017°53'  

Dump ship's entire track history